Dover, Delaware
Current Conditions -  °F | °C
As of 3:58 AM on Saturday 25 Oct 2014 (Local Time) from KDOV Reporting Station
Clear Clear  
Wind Chill:   Ceiling: Unl
Heat Index:   Visibility: 10mi
Dew Point:   Wind: 7mph
Humidity: 74%   Direction: 280°W
Pressure: 29.89"   Gusts: NA
Location:  39.16°N, 75.52°W
Report Text: KDOV 250758Z AUTO 28006KT 10SM CLR 09/05 A2989 RMK AO2 SLP125 T00920047
Loading
Personal Weather Stations






























Interactive Weather Map New forecast layout! Learn more

10-Day Weather Forecast

Advertisements
Track Severe Weather on mobile